createdAt,value
2019-03-28T00:00:47.273Z,55.53
2019-03-28T00:03:15.760Z,54.90
2019-03-28T00:05:44.989Z,53.42
2019-03-28T00:08:13.801Z,53.83
2019-03-28T00:10:42.670Z,49.43
2019-03-28T00:13:11.442Z,48.60
2019-03-28T00:15:40.546Z,49.17
2019-03-28T00:18:42.224Z,47.47
2019-03-28T00:21:10.881Z,50.67
2019-03-28T00:26:38.324Z,48.10
2019-03-28T00:29:06.909Z,45.03
2019-03-28T00:31:35.727Z,46.43
2019-03-28T00:34:05.964Z,47.74
2019-03-28T00:36:34.832Z,50.50
2019-03-28T00:39:04.247Z,47.98
2019-03-28T00:44:33.862Z,47.57
2019-03-28T00:47:04.910Z,48.70
2019-03-28T00:49:34.104Z,48.58
2019-03-28T00:52:03.420Z,50.55
2019-03-28T00:54:32.588Z,49.83
2019-03-28T00:57:01.485Z,48.50
2019-03-28T00:59:30.369Z,50.07
2019-03-28T01:01:59.166Z,50.95
2019-03-28T01:04:28.067Z,50.23
2019-03-28T01:06:57.222Z,49.10
2019-03-28T01:09:26.548Z,47.70
2019-03-28T01:11:55.434Z,47.50
2019-03-28T01:14:24.053Z,46.37
2019-03-28T01:16:53.110Z,48.40
2019-03-28T01:19:21.630Z,47.80
2019-03-28T01:22:15.627Z,46.90
2019-03-28T01:24:44.248Z,46.15
2019-03-28T01:27:13.040Z,46.70
2019-03-28T01:29:42.052Z,48.37
2019-03-28T01:32:11.233Z,48.03
2019-03-28T01:34:39.806Z,47.80
2019-03-28T01:37:08.391Z,43.25
2019-03-28T01:40:08.301Z,43.63
2019-03-28T01:42:37.524Z,42.65
2019-03-28T01:48:06.405Z,38.08
2019-03-28T01:51:17.893Z,40.10
2019-03-28T01:53:46.990Z,37.80
2019-03-28T01:56:46.366Z,35.48
2019-03-28T01:59:14.984Z,36.20
2019-03-28T02:01:50.101Z,40.43
2019-03-28T02:04:18.905Z,41.33
2019-03-28T02:06:47.785Z,41.17
2019-03-28T02:09:16.673Z,42.93
2019-03-28T02:11:45.873Z,42.17
2019-03-28T02:14:14.580Z,40.73
2019-03-28T02:16:43.982Z,39.15
2019-03-28T02:19:19.256Z,40.38
2019-03-28T02:21:48.746Z,39.60
2019-03-28T02:27:09.623Z,42.16
2019-03-28T02:29:38.505Z,42.07
2019-03-28T02:32:07.085Z,41.60
2019-03-28T02:35:39.757Z,40.57
2019-03-28T02:37:11.874Z,38.60
2019-03-28T02:39:40.743Z,36.90
2019-03-28T02:42:09.301Z,38.83
2019-03-28T02:44:38.189Z,39.07
2019-03-28T02:47:07.083Z,36.57
2019-03-28T02:49:36.278Z,36.95
2019-03-28T02:52:07.417Z,37.73
2019-03-28T02:54:36.005Z,36.50
2019-03-28T02:57:07.700Z,37.90
2019-03-28T02:59:37.363Z,36.33
2019-03-28T03:02:19.052Z,40.48
2019-03-28T03:04:49.112Z,38.87
2019-03-28T03:07:17.958Z,38.00
2019-03-28T03:09:47.177Z,40.78
2019-03-28T03:12:25.149Z,39.40
2019-03-28T03:14:54.044Z,40.47
2019-03-28T03:17:52.938Z,40.03
2019-03-28T03:20:21.526Z,42.67
2019-03-28T03:22:57.883Z,40.33
2019-03-28T03:25:26.769Z,43.33
2019-03-28T03:27:58.478Z,43.95
2019-03-28T03:30:27.311Z,40.33
2019-03-28T03:32:56.206Z,39.13
2019-03-28T03:35:25.078Z,38.50
2019-03-28T03:37:53.901Z,38.40
2019-03-28T03:40:22.589Z,39.20
2019-03-28T03:42:52.881Z,42.03
2019-03-28T03:45:21.476Z,43.57
2019-03-28T03:47:57.624Z,41.87
2019-03-28T03:50:27.442Z,39.60
2019-03-28T03:52:56.946Z,38.58
2019-03-28T03:55:26.039Z,40.83
2019-03-28T03:57:54.929Z,41.17
2019-03-28T04:00:36.646Z,43.27
2019-03-28T04:03:06.347Z,44.67
2019-03-28T04:05:35.217Z,42.90
2019-03-28T04:08:04.113Z,44.33
2019-03-28T04:10:54.194Z,44.50
2019-03-28T04:13:22.784Z,42.80
2019-03-28T04:15:57.812Z,46.17
2019-03-28T04:18:27.822Z,48.92
2019-03-28T04:20:56.705Z,47.50
2019-03-28T04:23:27.256Z,47.07
2019-03-28T04:25:56.122Z,46.63
2019-03-28T04:28:32.164Z,48.00
2019-03-28T04:30:55.540Z,46.03
2019-03-28T04:33:24.661Z,46.23
2019-03-28T04:35:53.527Z,46.77
2019-03-28T04:38:22.540Z,45.73
2019-03-28T04:40:57.545Z,44.67
2019-03-28T04:43:26.645Z,46.40
2019-03-28T04:45:56.446Z,46.17
2019-03-28T04:48:50.782Z,48.02
2019-03-28T04:51:20.853Z,48.40
2019-03-28T04:54:23.233Z,48.33
2019-03-28T04:56:52.638Z,46.92
2019-03-28T04:59:21.220Z,47.93
2019-03-28T05:02:02.493Z,49.43
2019-03-28T05:04:21.248Z,49.67
2019-03-28T05:06:50.548Z,52.60
2019-03-28T05:09:19.532Z,47.67
2019-03-28T05:11:48.730Z,49.95
2019-03-28T05:14:45.911Z,49.80
2019-03-28T05:17:14.610Z,48.47
2019-03-28T05:22:43.677Z,49.50
2019-03-28T05:25:12.505Z,49.83
2019-03-28T05:27:41.369Z,50.67
2019-03-28T05:30:10.653Z,49.13
2019-03-28T05:32:39.536Z,52.00
2019-03-28T05:35:08.121Z,49.53
2019-03-28T05:37:37.013Z,50.10
2019-03-28T05:40:07.004Z,51.70
2019-03-28T05:42:35.816Z,50.90
2019-03-28T05:45:33.177Z,51.43
2019-03-28T05:48:01.861Z,49.77
2019-03-28T05:50:30.754Z,48.63
2019-03-28T05:52:59.304Z,50.25
2019-03-28T05:55:28.115Z,52.57
2019-03-28T05:57:57.313Z,52.60
2019-03-28T06:00:51.209Z,59.93
2019-03-28T06:03:18.078Z,56.80
2019-03-28T06:06:15.485Z,56.13
2019-03-28T06:08:44.377Z,54.63
2019-03-28T06:11:13.381Z,55.85
2019-03-28T06:13:42.265Z,51.77
2019-03-28T06:16:11.024Z,54.75
2019-03-28T06:18:39.825Z,54.40
2019-03-28T06:21:08.406Z,55.60
2019-03-28T06:23:37.808Z,52.78
2019-03-28T06:26:06.391Z,54.43
2019-03-28T06:28:36.817Z,54.00
2019-03-28T06:31:06.324Z,54.75
2019-03-28T06:33:42.104Z,54.80
2019-03-28T06:36:10.756Z,52.40
2019-03-28T06:38:41.591Z,54.97
2019-03-28T06:41:10.173Z,50.63
2019-03-28T06:43:41.792Z,51.03
2019-03-28T06:46:30.059Z,49.80
2019-03-28T06:48:58.605Z,51.15
2019-03-28T06:54:28.181Z,50.13
2019-03-28T06:56:57.981Z,52.73
2019-03-28T06:59:36.778Z,50.77
2019-03-28T07:01:58.651Z,53.40
2019-03-28T07:04:27.617Z,55.75
2019-03-28T07:06:56.734Z,57.58
2019-03-28T07:09:28.796Z,53.25
2019-03-28T07:11:58.100Z,51.70
2019-03-28T07:14:26.772Z,52.05
2019-03-28T07:16:56.015Z,53.83
2019-03-28T07:19:24.984Z,47.40
2019-03-28T07:21:53.843Z,46.33
2019-03-28T07:24:22.424Z,49.07
2019-03-28T07:26:52.125Z,51.98
2019-03-28T07:29:21.182Z,48.58
2019-03-28T07:31:50.109Z,46.10
2019-03-28T07:34:18.998Z,43.95
2019-03-28T07:36:48.073Z,42.03
2019-03-28T07:39:19.071Z,41.73
2019-03-28T07:41:47.914Z,40.40
2019-03-28T07:44:16.393Z,40.03
2019-03-28T07:46:47.490Z,39.63
2019-03-28T07:49:15.327Z,40.37
2019-03-28T07:51:44.085Z,48.33
2019-03-28T07:54:13.429Z,49.18
2019-03-28T07:56:42.282Z,46.63
2019-03-28T07:59:11.370Z,48.07
2019-03-28T08:01:40.265Z,47.77
2019-03-28T08:04:12.117Z,43.93
2019-03-28T08:06:49.149Z,43.33
2019-03-28T08:09:10.101Z,43.63
2019-03-28T08:11:39.067Z,43.60
2019-03-28T08:14:08.315Z,40.47
2019-03-28T08:16:37.178Z,40.77
2019-03-28T08:19:07.968Z,43.00
2019-03-28T08:21:36.485Z,39.87
2019-03-28T08:24:06.609Z,40.16
2019-03-28T08:26:35.698Z,39.38
2019-03-28T08:29:05.229Z,40.73
2019-03-28T08:31:34.445Z,38.58
2019-03-28T08:34:03.193Z,38.63
2019-03-28T08:36:32.017Z,38.17
2019-03-28T08:39:01.482Z,38.85
2019-03-28T08:41:32.828Z,39.30
2019-03-28T08:44:01.410Z,37.90
2019-03-28T08:46:30.609Z,40.98
2019-03-28T08:48:59.825Z,41.42
2019-03-28T08:51:28.662Z,41.70
2019-03-28T08:53:57.791Z,43.87
2019-03-28T08:56:28.112Z,40.35
2019-03-28T08:58:56.690Z,41.75
2019-03-28T09:01:26.603Z,41.20
2019-03-28T09:03:55.702Z,39.90
2019-03-28T09:06:25.066Z,42.63
2019-03-28T09:08:53.585Z,41.60
2019-03-28T09:11:22.469Z,40.25
2019-03-28T09:14:03.100Z,42.27
2019-03-28T09:16:26.388Z,41.48
2019-03-28T09:18:55.876Z,41.73
2019-03-28T09:21:26.548Z,41.07
2019-03-28T09:23:55.234Z,41.80
2019-03-28T09:26:24.223Z,41.30
2019-03-28T09:28:53.090Z,41.40
2019-03-28T09:31:21.980Z,40.78
2019-03-28T09:33:50.560Z,41.10
2019-03-28T09:36:19.145Z,40.23
2019-03-28T09:38:48.034Z,41.83
2019-03-28T09:41:17.053Z,39.30
2019-03-28T09:43:55.166Z,36.53
2019-03-28T09:46:16.029Z,37.00
2019-03-28T09:48:45.359Z,38.70
2019-03-28T09:51:14.347Z,36.13
2019-03-28T09:53:43.029Z,31.73
2019-03-28T09:56:11.893Z,35.68
2019-03-28T09:58:40.490Z,34.38
2019-03-28T10:01:09.498Z,33.50
2019-03-28T10:03:38.050Z,30.85
2019-03-28T10:06:06.563Z,31.35
2019-03-28T10:08:35.054Z,31.68
2019-03-28T10:11:03.606Z,31.07
2019-03-28T10:13:32.725Z,29.48
2019-03-28T10:16:01.293Z,27.48
2019-03-28T10:18:30.392Z,30.35
2019-03-28T10:20:59.177Z,31.68
2019-03-28T10:23:28.372Z,27.02
2019-03-28T10:25:56.938Z,27.52
2019-03-28T10:28:25.843Z,27.65
2019-03-28T10:30:54.937Z,23.67
2019-03-28T10:33:24.054Z,23.50
2019-03-28T10:35:53.322Z,19.95
2019-03-28T10:38:21.901Z,20.07
2019-03-28T10:40:50.481Z,23.20
2019-03-28T10:43:19.386Z,25.17
2019-03-28T10:45:47.985Z,21.05
2019-03-28T10:48:16.621Z,21.97
2019-03-28T10:50:46.128Z,22.43
2019-03-28T10:53:15.530Z,21.57
2019-03-28T10:55:44.310Z,22.10
2019-03-28T10:58:18.864Z,23.10
2019-03-28T11:00:43.833Z,20.40
2019-03-28T11:03:12.815Z,19.70
2019-03-28T11:05:41.407Z,18.82
2019-03-28T11:08:10.297Z,19.95
2019-03-28T11:10:39.187Z,19.50
2019-03-28T11:13:09.600Z,20.62
2019-03-28T11:15:38.136Z,18.30
2019-03-28T11:18:07.191Z,19.45
2019-03-28T11:20:39.789Z,20.13
2019-03-28T11:23:08.250Z,22.93
2019-03-28T11:25:37.124Z,19.73
2019-03-28T11:28:06.746Z,20.50
2019-03-28T11:30:35.645Z,19.32
2019-03-28T11:33:06.456Z,16.45
2019-03-28T11:35:34.423Z,17.65
2019-03-28T11:38:03.006Z,15.43
2019-03-28T11:40:32.616Z,14.90
2019-03-28T11:43:01.193Z,14.50
2019-03-28T11:45:29.773Z,14.93
2019-03-28T11:47:58.969Z,13.95
2019-03-28T11:50:27.758Z,16.42
2019-03-28T11:52:56.341Z,17.30
2019-03-28T11:55:25.152Z,18.47
2019-03-28T11:57:56.360Z,18.35
2019-03-28T12:00:32.581Z,19.23
2019-03-28T12:03:01.623Z,13.05
2019-03-28T12:05:30.218Z,12.35
2019-03-28T12:07:59.221Z,16.00
2019-03-28T12:10:27.897Z,19.48
2019-03-28T12:12:56.780Z,22.02
2019-03-28T12:15:26.385Z,21.27
2019-03-28T12:17:54.972Z,20.82
2019-03-28T12:20:23.861Z,22.00
2019-03-28T12:22:56.058Z,21.00
2019-03-28T12:25:23.893Z,23.13
2019-03-28T12:27:54.227Z,35.58
2019-03-28T12:30:23.508Z,31.13
2019-03-28T12:32:52.425Z,32.10
2019-03-28T12:35:21.293Z,23.25
2019-03-28T12:37:50.181Z,23.03
2019-03-28T12:40:18.761Z,20.90
2019-03-28T12:42:47.341Z,27.35
2019-03-28T12:45:16.080Z,28.03
2019-03-28T12:47:44.938Z,27.25
2019-03-28T12:50:13.705Z,24.50
2019-03-28T12:52:42.285Z,24.10
2019-03-28T12:55:11.381Z,26.27
2019-03-28T12:57:40.677Z,23.00
2019-03-28T13:00:10.617Z,28.13
2019-03-28T13:02:39.183Z,37.28
2019-03-28T13:05:08.701Z,23.50
2019-03-28T13:07:37.773Z,29.77
2019-03-28T13:10:08.300Z,27.58
2019-03-28T13:12:37.723Z,23.47
2019-03-28T13:15:08.248Z,24.05
2019-03-28T13:17:37.116Z,25.53
2019-03-28T13:20:07.854Z,20.93
2019-03-28T13:22:37.060Z,20.95
2019-03-28T13:25:06.471Z,17.02
2019-03-28T13:27:36.506Z,21.03
2019-03-28T13:30:07.909Z,13.26
2019-03-28T13:32:41.911Z,17.07
2019-03-28T13:35:08.450Z,20.57
2019-03-28T13:37:37.033Z,17.62
2019-03-28T13:40:07.325Z,20.17
2019-03-28T13:42:36.657Z,19.77
2019-03-28T13:45:09.258Z,16.90
2019-03-28T13:47:37.817Z,15.80
2019-03-28T13:50:08.035Z,17.20
2019-03-28T13:52:36.616Z,20.17
2019-03-28T13:55:07.106Z,18.90
2019-03-28T13:57:35.930Z,16.33
2019-03-28T14:00:09.937Z,15.83
2019-03-28T14:02:39.036Z,16.65
2019-03-28T14:05:09.004Z,17.07
2019-03-28T14:07:37.733Z,14.00
2019-03-28T14:10:07.959Z,19.48
2019-03-28T14:12:37.665Z,14.15
2019-03-28T14:15:07.813Z,19.17
2019-03-28T14:17:36.365Z,18.87
2019-03-28T14:20:06.513Z,16.00
2019-03-28T14:22:35.679Z,18.77
2019-03-28T14:25:06.002Z,18.30
2019-03-28T14:27:34.892Z,16.80
2019-03-28T14:30:04.728Z,15.20
2019-03-28T14:32:33.281Z,17.62
2019-03-28T14:35:01.784Z,17.95
2019-03-28T14:37:30.749Z,17.30
2019-03-28T14:39:59.294Z,17.20
2019-03-28T14:42:27.819Z,15.50
2019-03-28T14:44:56.401Z,17.98
2019-03-28T14:47:25.709Z,16.90
2019-03-28T14:49:54.612Z,18.77
2019-03-28T14:52:23.293Z,14.93
2019-03-28T14:54:51.857Z,17.98
2019-03-28T14:57:21.149Z,18.75
2019-03-28T14:59:49.837Z,16.95
2019-03-28T15:02:18.345Z,15.60
2019-03-28T15:04:46.849Z,14.65
2019-03-28T15:07:15.382Z,15.60
2019-03-28T15:09:43.965Z,16.52
2019-03-28T15:12:12.543Z,18.70
2019-03-28T15:14:41.433Z,19.52
2019-03-28T15:17:10.567Z,16.02
2019-03-28T15:19:39.106Z,17.17
2019-03-28T15:22:07.689Z,14.47
2019-03-28T15:24:36.274Z,16.73
2019-03-28T15:27:05.819Z,16.85
2019-03-28T15:29:34.553Z,16.75
2019-03-28T15:32:03.869Z,16.62
2019-03-28T15:34:32.441Z,17.75
2019-03-28T15:37:01.022Z,17.52
2019-03-28T15:39:29.526Z,17.75
2019-03-28T15:41:58.081Z,15.85
2019-03-28T15:44:26.970Z,15.15
2019-03-28T15:46:55.862Z,16.97
2019-03-28T15:49:24.639Z,17.73
2019-03-28T15:51:53.532Z,17.00
2019-03-28T15:54:22.553Z,16.65
2019-03-28T15:56:51.113Z,15.20
2019-03-28T15:59:19.697Z,15.43
2019-03-28T16:01:48.580Z,17.27
2019-03-28T16:04:17.469Z,15.00
2019-03-28T16:06:46.970Z,16.50
2019-03-28T16:09:18.414Z,18.25
2019-03-28T16:11:46.005Z,15.53
2019-03-28T16:14:15.088Z,17.42
2019-03-28T16:16:43.565Z,16.82
2019-03-28T16:19:12.241Z,16.37
2019-03-28T16:21:40.821Z,17.42
2019-03-28T16:24:09.716Z,15.87
2019-03-28T16:26:38.603Z,16.70
2019-03-28T16:29:07.414Z,16.82
2019-03-28T16:31:36.498Z,17.67
2019-03-28T16:34:07.512Z,18.55
2019-03-28T16:36:38.070Z,15.50
2019-03-28T16:39:07.067Z,17.60
2019-03-28T16:41:37.161Z,15.60
2019-03-28T16:44:05.946Z,16.40
2019-03-28T16:46:35.248Z,14.45
2019-03-28T16:49:04.134Z,12.30
2019-03-28T16:51:33.145Z,15.83
2019-03-28T16:54:02.123Z,13.30
2019-03-28T16:56:38.281Z,16.07
2019-03-28T16:59:08.429Z,12.55
2019-03-28T17:02:06.599Z,16.05
2019-03-28T17:04:49.751Z,17.10
2019-03-28T17:07:51.642Z,17.93
2019-03-28T17:13:17.970Z,18.05
2019-03-28T17:15:47.417Z,17.10
2019-03-28T17:21:15.492Z,16.60
2019-03-28T17:26:46.043Z,17.35
2019-03-28T17:29:45.793Z,18.62
2019-03-28T17:32:17.003Z,20.00
2019-03-28T17:35:16.301Z,18.57
2019-03-28T17:37:48.461Z,19.23
2019-03-28T17:40:20.433Z,19.37
2019-03-28T17:42:50.107Z,19.50
2019-03-28T17:45:19.225Z,20.43
2019-03-28T17:47:55.938Z,19.82
2019-03-28T17:50:25.465Z,18.50
2019-03-28T17:52:56.653Z,18.77
2019-03-28T17:55:26.358Z,19.57
2019-03-28T17:57:59.855Z,19.00
2019-03-28T18:00:32.211Z,18.87
2019-03-28T18:03:08.961Z,19.53
2019-03-28T18:05:33.401Z,17.70
2019-03-28T18:08:02.299Z,17.80
2019-03-28T18:10:30.854Z,20.05
2019-03-28T18:12:59.741Z,20.57
2019-03-28T18:15:28.728Z,20.10
2019-03-28T18:17:57.825Z,19.40
2019-03-28T18:20:27.122Z,19.23
2019-03-28T18:22:56.013Z,20.65
2019-03-28T18:25:24.778Z,19.63
2019-03-28T18:27:53.497Z,18.50
2019-03-28T18:30:22.581Z,18.17
2019-03-28T18:32:51.289Z,15.43
2019-03-28T18:35:19.856Z,18.63
2019-03-28T18:37:48.470Z,19.67
2019-03-28T18:40:17.138Z,14.73
2019-03-28T18:45:42.367Z,17.93
2019-03-28T18:48:41.898Z,18.03
2019-03-28T18:51:17.650Z,18.17
2019-03-28T18:54:12.716Z,15.87
2019-03-28T18:56:44.150Z,16.60
2019-03-28T18:59:23.744Z,16.75
2019-03-28T19:02:01.145Z,18.15
2019-03-28T19:04:31.388Z,17.62
2019-03-28T19:07:00.193Z,18.10
2019-03-28T19:09:31.964Z,15.23
2019-03-28T19:12:05.983Z,15.75
2019-03-28T19:14:37.187Z,19.57
2019-03-28T19:17:05.895Z,16.12
2019-03-28T19:19:39.595Z,17.03
2019-03-28T19:22:09.671Z,16.27
2019-03-28T19:24:42.737Z,18.82
2019-03-28T19:27:11.674Z,18.30
2019-03-28T19:29:40.662Z,18.77
2019-03-28T19:35:08.442Z,18.80
2019-03-28T19:38:09.211Z,18.55
2019-03-28T19:40:38.182Z,18.52
2019-03-28T19:43:36.279Z,18.50
2019-03-28T19:46:06.575Z,19.62
2019-03-28T19:49:06.103Z,17.90
2019-03-28T19:51:35.290Z,17.82
2019-03-28T19:54:12.540Z,18.47
2019-03-28T19:56:43.417Z,19.05
2019-03-28T19:59:11.871Z,18.33
2019-03-28T20:01:40.802Z,19.47
2019-03-28T20:04:09.801Z,20.17
2019-03-28T20:06:57.202Z,22.20
2019-03-28T20:12:31.756Z,22.05
2019-03-28T20:14:59.956Z,24.02
2019-03-28T20:17:31.135Z,21.15
2019-03-28T20:20:04.250Z,19.75
2019-03-28T20:22:39.054Z,21.60
2019-03-28T20:25:11.950Z,21.65
2019-03-28T20:27:40.619Z,21.25
2019-03-28T20:30:19.578Z,22.10
2019-03-28T20:32:48.898Z,22.60
2019-03-28T20:38:18.477Z,21.23
2019-03-28T20:40:53.433Z,20.50
2019-03-28T20:43:40.331Z,23.20
2019-03-28T20:46:09.234Z,22.58
2019-03-28T20:48:38.928Z,23.77
2019-03-28T20:51:17.701Z,23.60
2019-03-28T20:53:44.998Z,22.40
2019-03-28T20:56:13.869Z,22.77
2019-03-28T20:58:42.749Z,22.90
2019-03-28T21:01:11.281Z,23.30
2019-03-28T21:03:41.209Z,24.70
2019-03-28T21:06:15.533Z,23.70
2019-03-28T21:08:43.669Z,27.47
2019-03-28T21:11:12.322Z,25.63
2019-03-28T21:13:45.736Z,29.77
2019-03-28T21:16:20.459Z,31.23
2019-03-28T21:18:49.539Z,32.00
2019-03-28T21:21:19.961Z,32.35
2019-03-28T21:23:48.852Z,30.33
2019-03-28T21:26:17.740Z,41.13
2019-03-28T21:28:47.712Z,28.90
2019-03-28T21:31:18.611Z,28.23
2019-03-28T21:34:00.604Z,31.47
2019-03-28T21:36:30.522Z,31.47
2019-03-28T21:39:00.077Z,28.37
2019-03-28T21:41:37.493Z,35.73
2019-03-28T21:44:06.300Z,42.15
2019-03-28T21:46:35.434Z,38.50
2019-03-28T21:49:06.969Z,64.07
2019-03-28T21:51:53.522Z,44.23
2019-03-28T21:54:22.622Z,64.90
2019-03-28T21:59:54.602Z,36.28
2019-03-28T22:02:29.507Z,33.77
2019-03-28T22:04:58.448Z,32.03
2019-03-28T22:07:27.522Z,30.80
2019-03-28T22:18:21.337Z,41.70
2019-03-28T22:23:49.970Z,32.20
2019-03-28T22:26:27.224Z,30.50
2019-03-28T22:28:56.422Z,28.62
2019-03-28T22:31:25.404Z,37.20
2019-03-28T22:33:55.022Z,31.70
2019-03-28T22:36:36.367Z,29.53
2019-03-28T22:39:06.701Z,30.65
2019-03-28T22:42:04.958Z,28.73
2019-03-28T22:44:35.962Z,30.08
2019-03-28T22:49:59.268Z,29.07
2019-03-28T22:55:29.765Z,30.90
2019-03-28T22:58:06.129Z,28.73
2019-03-28T23:00:45.210Z,31.17
2019-03-28T23:03:17.172Z,30.83
2019-03-28T23:06:12.666Z,32.07
2019-03-28T23:08:41.905Z,30.70
2019-03-28T23:14:08.989Z,30.95
2019-03-28T23:17:11.066Z,30.50
2019-03-28T23:19:39.846Z,31.55
2019-03-28T23:22:14.816Z,30.53
2019-03-28T23:24:44.617Z,30.72
2019-03-28T23:27:13.874Z,30.63
2019-03-28T23:29:42.716Z,31.23
2019-03-28T23:32:12.999Z,31.27
2019-03-28T23:34:42.202Z,30.03
2019-03-28T23:37:23.935Z,30.17
2019-03-28T23:39:41.501Z,29.23
2019-03-28T23:42:10.088Z,30.80
2019-03-28T23:44:39.212Z,29.15
2019-03-28T23:47:10.833Z,27.15
2019-03-28T23:49:40.604Z,29.35
2019-03-28T23:52:09.679Z,28.42
2019-03-28T23:54:38.520Z,27.73
2019-03-28T23:57:07.311Z,28.40
2019-03-28T23:59:35.899Z,28.87
